747解体 ver1.1

LUXURY FLIGHT

03-6423-7371

羽田本店:東京都大田区羽田5-11-1
営業時間:10:00~20:00
定休日:毎週 月曜日
セントレア店:愛知県常滑市セントレア1-1
営業時間:10:00~20:00 年中無休

lv

747解体 ver1.1

STAFF BLOG

2019/11/21 747解体 ver1.1

こんばんはーーーー

気づいたら空気の匂いが冬な感じのここ羽田。

急に冷え込んで参りました。

 

RJTT 210800Z 07004KT 9999 FEW030 15/03 Q1030 NOSIG RMK 1CU030 A3043

 

冷たい風が吹いております。

 

 

お待たせしました!!

(お待ちの人がいたかは謎ですが…)

 

前回は難所のオーバーヘッドバラしまでご紹介しましたが、

今回はさらにバラしを進めて参ります!!

 

img_3745

 

 

オーバーヘッドは無くなりましたが、

まだ、一目見て「飛行機」だとわかる外観です。

 

img_3746

 

 

都合がいいので脚立代わりに高所作業(?)をやってしまいます。

外の景色を映し出すためのプロジェクターもこの時点で外していきます。

 

img_3744

 

いよいよサイドのパネルを外す作業に取り掛かります。

この辺りは、隠れネジが多いので「バキッ」とならないよう慎重に…

こういう作業のあるあるですが、だいたい組み付ける時にネジが2,3本余るんですよね…笑

このシムでそれをやると大問題ですので、ネジ一本もキチンとチェックします。

 

img_3750

 

左側が外れました。

 

置き場所がないので…

 

 

img_3747

 

店の前に置きました。笑

 

若干異様な光景です。

近所のおじさんや犬の散歩の奥様が二度見して通り過ぎていきます。

 

 

 

この時点で作業開始から6時間ほどが経過。

一番時間を食ったのが、前回のブログver.1.0でご紹介した、あの狭い柱の間を通過すること!!!

 

全員が声を掛け合い、普段使わない筋肉を駆使して戦いました。

この部品、見た目以上に重い…

 

次回、いよいよ終盤戦。

シムの床下をバラして参ります!!!!

 

いつもブログを読んでくださり本当にありがとうございます。

 

 

「感謝」

 

 

 

 

 

 

 

 

 

 

 

 

 

 

 

 

 

 

 

 

TOP